createdAt,value
2022-08-05T00:03:06.141Z,84.50
2022-08-05T00:06:33.181Z,81.87
2022-08-05T00:10:00.217Z,82.90
2022-08-05T00:13:38.368Z,79.48
2022-08-05T00:17:04.302Z,76.43
2022-08-05T00:20:43.318Z,74.62
2022-08-05T00:24:18.886Z,73.46
2022-08-05T00:27:49.349Z,71.35
2022-08-05T00:31:15.213Z,70.14
2022-08-05T00:34:53.545Z,71.61
2022-08-05T00:38:28.682Z,69.77
2022-08-05T00:41:55.778Z,69.07
2022-08-05T00:45:28.364Z,71.76
2022-08-05T00:49:02.294Z,74.36
2022-08-05T00:52:28.974Z,73.77
2022-08-05T00:55:53.391Z,71.81
2022-08-05T00:59:18.314Z,69.75
2022-08-05T01:02:42.272Z,67.65
2022-08-05T01:06:14.054Z,67.56
2022-08-05T01:09:39.395Z,66.08
2022-08-05T01:13:13.220Z,65.81
2022-08-05T01:17:03.292Z,65.50
2022-08-05T01:20:47.285Z,65.36
2022-08-05T01:24:26.245Z,65.56
2022-08-05T01:28:31.294Z,64.86
2022-08-05T01:32:01.259Z,62.89
2022-08-05T01:35:51.111Z,60.94
2022-08-05T01:39:15.349Z,61.14
2022-08-05T01:43:01.301Z,65.07
2022-08-05T01:46:42.810Z,61.09
2022-08-05T01:50:15.026Z,60.47
2022-08-05T01:53:57.161Z,60.61
2022-08-05T01:58:18.763Z,59.72
2022-08-05T02:01:09.346Z,56.95
2022-08-05T02:04:34.367Z,60.07
2022-08-05T02:08:01.242Z,58.52
2022-08-05T02:11:32.733Z,59.85
2022-08-05T02:15:03.385Z,59.70
2022-08-05T02:18:35.165Z,57.71
2022-08-05T02:22:25.641Z,59.40
2022-08-05T02:25:52.337Z,62.27
2022-08-05T02:29:21.711Z,62.12
2022-08-05T02:32:49.283Z,61.91
2022-08-05T02:36:15.647Z,62.12
2022-08-05T02:39:42.436Z,62.17
2022-08-05T02:43:12.379Z,61.50
2022-08-05T02:46:53.404Z,60.34
2022-08-05T02:50:25.370Z,61.16
2022-08-05T02:53:49.287Z,61.65
2022-08-05T02:58:09.834Z,61.10
2022-08-05T03:01:12.395Z,64.31
2022-08-05T03:04:40.322Z,62.69
2022-08-05T03:08:08.965Z,62.51
2022-08-05T03:11:57.447Z,63.53
2022-08-05T03:15:24.586Z,61.68
2022-08-05T03:18:49.365Z,62.13
2022-08-05T03:22:16.287Z,63.08
2022-08-05T03:26:04.403Z,62.24
2022-08-05T03:29:45.919Z,66.12
2022-08-05T03:33:11.370Z,62.21
2022-08-05T03:36:37.322Z,61.53
2022-08-05T03:40:24.311Z,63.29
2022-08-05T03:44:09.236Z,62.78
2022-08-05T03:47:41.399Z,61.79
2022-08-05T03:52:50.494Z,60.88
2022-08-05T03:56:04.394Z,61.09
2022-08-05T03:58:59.354Z,60.80
2022-08-05T04:02:38.888Z,62.00
2022-08-05T04:06:08.742Z,61.60
2022-08-05T04:09:36.698Z,66.00
2022-08-05T04:13:03.395Z,65.56
2022-08-05T04:16:32.716Z,64.34
2022-08-05T04:20:04.381Z,63.50
2022-08-05T04:23:58.368Z,64.00
2022-08-05T04:27:13.473Z,63.45
2022-08-05T04:30:38.385Z,64.91
2022-08-05T04:34:33.117Z,66.90
2022-08-05T04:38:01.104Z,70.63
2022-08-05T04:41:36.821Z,74.10
2022-08-05T04:45:03.378Z,76.62
2022-08-05T04:48:28.562Z,76.56
2022-08-05T04:52:00.218Z,76.71
2022-08-05T04:56:15.307Z,76.73
2022-08-05T04:59:21.737Z,77.32
2022-08-05T05:02:48.441Z,78.34
2022-08-05T05:06:39.187Z,78.87
2022-08-05T05:10:01.969Z,79.14
2022-08-05T05:13:32.261Z,80.58
2022-08-05T05:17:09.626Z,80.81
2022-08-05T05:20:33.348Z,81.05
2022-08-05T05:24:02.875Z,81.53
2022-08-05T05:27:44.909Z,82.93
2022-08-05T05:31:10.357Z,82.78
2022-08-05T05:34:35.389Z,81.68
2022-08-05T05:38:09.217Z,79.87
2022-08-05T05:41:40.631Z,81.40
2022-08-05T05:45:06.415Z,82.10
2022-08-05T05:48:31.435Z,82.26
2022-08-05T05:51:55.419Z,84.28
2022-08-05T05:55:23.423Z,84.08
2022-08-05T05:59:08.416Z,84.14
2022-08-05T06:02:36.897Z,82.80
2022-08-05T06:06:02.380Z,82.94
2022-08-05T06:09:25.696Z,85.08
2022-08-05T06:12:59.419Z,84.30
2022-08-05T06:16:28.553Z,84.80
2022-08-05T06:19:59.768Z,85.38
2022-08-05T06:23:24.370Z,86.83
2022-08-05T06:26:52.128Z,87.63
2022-08-05T06:30:20.999Z,86.37
2022-08-05T06:34:07.971Z,87.84
2022-08-05T06:37:57.937Z,87.72
2022-08-05T06:41:08.437Z,87.88
2022-08-05T06:44:35.475Z,88.02
2022-08-05T06:48:35.939Z,87.32
2022-08-05T06:51:43.429Z,86.97
2022-08-05T06:55:07.412Z,87.35
2022-08-05T06:58:36.168Z,87.96
2022-08-05T07:02:00.453Z,89.10
2022-08-05T07:05:31.840Z,89.36
2022-08-05T07:09:04.173Z,88.95
2022-08-05T07:12:49.192Z,89.22
2022-08-05T07:18:00.304Z,89.55
2022-08-05T07:20:32.914Z,90.19
2022-08-05T07:23:57.460Z,87.46
2022-08-05T07:27:27.296Z,87.56
2022-08-05T07:31:03.071Z,88.32
2022-08-05T07:34:26.243Z,86.82
2022-08-05T07:37:52.412Z,88.84
2022-08-05T07:42:12.762Z,89.24
2022-08-05T07:45:09.329Z,92.04
2022-08-05T07:49:03.074Z,91.26
2022-08-05T07:52:17.501Z,90.73
2022-08-05T07:56:05.690Z,91.62
2022-08-05T07:59:38.255Z,91.25
2022-08-05T08:03:13.885Z,91.33
2022-08-05T08:06:40.445Z,91.66
2022-08-05T08:10:07.440Z,91.47
2022-08-05T08:13:32.493Z,91.53
2022-08-05T08:17:18.449Z,92.14
2022-08-05T08:21:02.224Z,92.12
2022-08-05T08:24:45.988Z,91.35
2022-08-05T08:28:18.963Z,91.37
2022-08-05T08:31:57.447Z,92.71
2022-08-05T08:35:22.451Z,92.82
2022-08-05T08:38:53.040Z,91.84
2022-08-05T08:42:33.632Z,92.17
2022-08-05T08:45:59.519Z,92.00
2022-08-05T08:50:05.801Z,92.75
2022-08-05T08:53:16.506Z,92.48
2022-08-05T08:56:47.887Z,92.06
2022-08-05T09:00:16.461Z,92.92
2022-08-05T09:03:45.480Z,92.81
2022-08-05T09:07:10.630Z,92.46
2022-08-05T09:10:43.444Z,92.42
2022-08-05T09:14:57.714Z,92.86
2022-08-05T09:17:56.438Z,93.20
2022-08-05T09:22:17.662Z,93.56
2022-08-05T09:25:23.838Z,94.73
2022-08-05T09:28:57.481Z,94.48
2022-08-05T09:32:49.364Z,95.42
2022-08-05T09:36:27.639Z,95.15
2022-08-05T09:39:57.632Z,95.50
2022-08-05T09:43:21.492Z,94.88
2022-08-05T09:46:51.705Z,95.98
2022-08-05T09:50:38.759Z,96.79
2022-08-05T09:54:08.508Z,95.67
2022-08-05T09:57:54.744Z,96.18
2022-08-05T10:01:32.421Z,96.42
2022-08-05T10:04:56.519Z,96.14
2022-08-05T10:08:37.304Z,96.08
2022-08-05T10:12:07.441Z,95.71
2022-08-05T10:15:51.459Z,96.00
2022-08-05T10:19:23.602Z,95.17
2022-08-05T10:22:58.434Z,97.00
2022-08-05T10:26:32.766Z,95.68
2022-08-05T10:30:06.928Z,95.79
2022-08-05T10:33:45.491Z,95.91
2022-08-05T10:37:16.459Z,96.15
2022-08-05T10:40:45.608Z,95.64
2022-08-05T10:44:18.491Z,95.73
2022-08-05T10:48:30.130Z,96.20
2022-08-05T10:51:53.045Z,94.85
2022-08-05T10:55:18.675Z,96.08
2022-08-05T10:58:48.702Z,95.16
2022-08-05T11:02:37.459Z,95.21
2022-08-05T11:06:30.965Z,95.91
2022-08-05T11:10:10.511Z,96.03
2022-08-05T11:13:58.245Z,96.10
2022-08-05T11:18:00.484Z,94.83
2022-08-05T11:21:49.543Z,95.15
2022-08-05T11:26:05.849Z,95.66
2022-08-05T11:29:52.507Z,95.58
2022-08-05T11:33:53.497Z,95.97
2022-08-05T11:38:28.730Z,96.61
2022-08-05T11:41:58.154Z,95.30
2022-08-05T11:45:02.527Z,95.10
2022-08-05T11:48:28.529Z,95.63
2022-08-05T11:51:52.625Z,95.61
2022-08-05T11:55:16.489Z,96.42
2022-08-05T11:58:53.164Z,95.89
2022-08-05T12:02:29.673Z,95.98
2022-08-05T12:05:56.589Z,96.04
2022-08-05T12:09:20.545Z,96.02
2022-08-05T12:13:02.584Z,95.55
2022-08-05T12:16:33.585Z,95.31
2022-08-05T12:20:25.838Z,96.47
2022-08-05T12:23:50.577Z,95.45
2022-08-05T12:27:21.518Z,96.14
2022-08-05T12:30:53.528Z,96.34
2022-08-05T12:34:23.832Z,96.66
2022-08-05T12:37:49.602Z,96.14
2022-08-05T12:41:17.619Z,95.78
2022-08-05T12:44:41.539Z,96.28
2022-08-05T12:48:17.292Z,96.02
2022-08-05T12:52:12.065Z,95.38
2022-08-05T12:55:43.589Z,96.75
2022-08-05T13:00:08.481Z,97.23
2022-08-05T13:03:14.787Z,98.01
2022-08-05T13:06:41.538Z,97.48
2022-08-05T13:10:19.361Z,98.75
2022-08-05T13:14:05.714Z,98.42
2022-08-05T13:17:41.708Z,99.03
2022-08-05T13:21:06.677Z,98.55
2022-08-05T13:24:51.115Z,99.91
2022-08-05T13:28:15.590Z,99.79
2022-08-05T13:32:04.070Z,100.00
2022-08-05T13:35:42.863Z,100.00
2022-08-05T13:40:13.801Z,100.00
2022-08-05T13:42:56.603Z,100.00
2022-08-05T13:46:50.569Z,100.00
2022-08-05T13:50:11.329Z,100.00
2022-08-05T13:53:47.931Z,100.00
2022-08-05T13:57:12.563Z,100.00
2022-08-05T14:00:39.589Z,100.00
2022-08-05T14:04:26.765Z,100.00
2022-08-05T14:08:00.034Z,100.00
2022-08-05T14:11:31.338Z,100.00
2022-08-05T14:14:56.578Z,100.00
2022-08-05T14:18:24.117Z,100.00
2022-08-05T14:22:10.215Z,100.00
2022-08-05T14:25:33.523Z,100.00
2022-08-05T14:28:57.573Z,100.00
2022-08-05T14:32:26.974Z,100.00
2022-08-05T14:35:52.202Z,100.00
2022-08-05T14:39:23.444Z,100.00
2022-08-05T14:42:49.608Z,100.00
2022-08-05T14:46:13.574Z,100.00
2022-08-05T14:49:59.112Z,100.00
2022-08-05T14:53:22.631Z,100.00
2022-08-05T14:56:54.651Z,100.00
2022-08-05T15:00:20.627Z,100.00
2022-08-05T15:03:51.595Z,100.00
2022-08-05T15:08:06.087Z,100.00
2022-08-05T15:11:01.552Z,100.00
2022-08-05T15:14:35.097Z,100.00
2022-08-05T15:18:07.604Z,100.00
2022-08-05T15:21:31.629Z,100.00
2022-08-05T15:24:59.640Z,100.00
2022-08-05T15:28:27.626Z,100.00
2022-08-05T15:31:53.079Z,100.00
2022-08-05T15:35:17.587Z,100.00
2022-08-05T15:38:42.190Z,100.00
2022-08-05T15:42:50.432Z,100.00
2022-08-05T15:46:00.684Z,100.00
2022-08-05T15:49:48.008Z,100.00
2022-08-05T15:53:09.870Z,100.00
2022-08-05T15:56:36.603Z,100.00
2022-08-05T16:00:02.340Z,100.00
2022-08-05T16:03:27.576Z,100.00
2022-08-05T16:06:53.605Z,100.00
2022-08-05T16:10:23.133Z,100.00
2022-08-05T16:13:49.587Z,100.00
2022-08-05T16:17:13.653Z,100.00
2022-08-05T16:20:37.559Z,100.00
2022-08-05T16:24:03.450Z,100.00
2022-08-05T16:27:47.312Z,100.00
2022-08-05T16:31:12.618Z,100.00
2022-08-05T16:34:39.241Z,100.00
2022-08-05T16:38:24.279Z,100.00
2022-08-05T16:42:14.197Z,100.00
2022-08-05T16:46:03.849Z,100.00
2022-08-05T16:49:22.665Z,100.00
2022-08-05T16:52:47.725Z,100.00
2022-08-05T16:56:12.697Z,100.00
2022-08-05T17:00:03.148Z,100.00
2022-08-05T17:03:22.644Z,100.00
2022-08-05T17:06:53.403Z,100.00
2022-08-05T17:10:17.634Z,100.00
2022-08-05T17:13:42.270Z,100.00
2022-08-05T17:17:14.615Z,100.00
2022-08-05T17:20:55.014Z,100.00
2022-08-05T17:24:35.363Z,100.00
2022-08-05T17:28:03.574Z,100.00
2022-08-05T17:31:57.067Z,100.00
2022-08-05T17:35:12.322Z,100.00
2022-08-05T17:38:40.628Z,100.00
2022-08-05T17:42:18.348Z,100.00
2022-08-05T17:45:45.630Z,100.00
2022-08-05T17:49:08.657Z,100.00
2022-08-05T17:52:33.625Z,100.00
2022-08-05T17:55:57.607Z,100.00
2022-08-05T17:59:22.788Z,100.00
2022-08-05T18:02:51.635Z,100.00
2022-08-05T18:06:16.748Z,100.00
2022-08-05T18:09:59.832Z,100.00
2022-08-05T18:13:23.631Z,100.00
2022-08-05T18:16:52.431Z,100.00
2022-08-05T18:20:16.613Z,100.00
2022-08-05T18:23:47.135Z,100.00
2022-08-05T18:27:18.039Z,100.00
2022-08-05T18:30:43.651Z,100.00
2022-08-05T18:34:06.759Z,100.00
2022-08-05T18:37:40.278Z,100.00
2022-08-05T18:41:55.146Z,100.00
2022-08-05T18:44:49.425Z,100.00
2022-08-05T18:48:30.621Z,100.00
2022-08-05T18:52:16.645Z,100.00
2022-08-05T18:55:40.643Z,100.00
2022-08-05T18:59:05.108Z,100.00
2022-08-05T19:02:48.806Z,100.00
2022-08-05T19:06:21.738Z,100.00
2022-08-05T19:09:46.654Z,100.00
2022-08-05T19:13:15.979Z,100.00
2022-08-05T19:16:46.789Z,100.00
2022-08-05T19:20:11.690Z,100.00
2022-08-05T19:24:05.086Z,100.00
2022-08-05T19:27:24.055Z,100.00
2022-08-05T19:30:49.688Z,100.00
2022-08-05T19:34:14.623Z,100.00
2022-08-05T19:38:06.327Z,100.00
2022-08-05T19:42:05.755Z,100.00
2022-08-05T19:45:14.399Z,100.00
2022-08-05T19:48:39.669Z,100.00
2022-08-05T19:52:31.801Z,100.00
2022-08-05T19:56:15.291Z,100.00
2022-08-05T19:59:56.102Z,100.00
2022-08-05T20:03:38.690Z,100.00
2022-08-05T20:07:13.309Z,100.00
2022-08-05T20:10:37.693Z,100.00
2022-08-05T20:14:12.325Z,100.00
2022-08-05T20:17:39.651Z,100.00
2022-08-05T20:21:04.767Z,100.00
2022-08-05T20:24:29.736Z,100.00
2022-08-05T20:27:53.635Z,100.00
2022-08-05T20:31:28.384Z,100.00
2022-08-05T20:35:02.677Z,100.00
2022-08-05T20:38:27.694Z,100.00
2022-08-05T20:41:54.655Z,100.00
2022-08-05T20:45:56.690Z,100.00
2022-08-05T20:49:09.655Z,100.00
2022-08-05T20:52:37.713Z,100.00
2022-08-05T20:56:08.611Z,100.00
2022-08-05T20:59:46.315Z,100.00
2022-08-05T21:03:20.742Z,100.00
2022-08-05T21:06:46.182Z,100.00
2022-08-05T21:10:13.746Z,100.00
2022-08-05T21:13:56.226Z,100.00
2022-08-05T21:17:20.695Z,100.00
2022-08-05T21:20:45.736Z,100.00
2022-08-05T21:24:13.325Z,100.00
2022-08-05T21:27:40.686Z,100.00
2022-08-05T21:31:12.704Z,100.00
2022-08-05T21:34:37.691Z,100.00
2022-08-05T21:38:02.777Z,100.00
2022-08-05T21:41:33.848Z,100.00
2022-08-05T21:44:58.710Z,100.00
2022-08-05T21:48:22.713Z,100.00
2022-08-05T21:52:15.772Z,100.00
2022-08-05T21:56:04.170Z,100.00
2022-08-05T21:59:22.578Z,99.79
2022-08-05T22:02:48.703Z,100.00
2022-08-05T22:06:14.676Z,100.00
2022-08-05T22:09:46.207Z,100.00
2022-08-05T22:14:19.378Z,99.07
2022-08-05T22:17:00.181Z,97.75
2022-08-05T22:20:28.695Z,96.90
2022-08-05T22:24:13.235Z,96.40
2022-08-05T22:28:11.098Z,96.46
2022-08-05T22:31:44.875Z,94.63
2022-08-05T22:35:09.693Z,96.10
2022-08-05T22:38:33.739Z,95.20
2022-08-05T22:42:09.518Z,95.83
2022-08-05T22:45:36.716Z,96.72
2022-08-05T22:48:55.277Z,96.81
2022-08-05T22:52:22.947Z,96.39
2022-08-05T22:55:57.157Z,94.88
2022-08-05T22:59:45.489Z,95.38
2022-08-05T23:03:08.818Z,95.28
2022-08-05T23:06:38.740Z,94.99
2022-08-05T23:10:03.680Z,94.02
2022-08-05T23:13:27.743Z,95.21
2022-08-05T23:17:12.208Z,95.37
2022-08-05T23:20:37.826Z,94.65
2022-08-05T23:24:03.805Z,93.79
2022-08-05T23:27:57.515Z,94.91
2022-08-05T23:31:20.737Z,94.58
2022-08-05T23:34:47.881Z,94.28
2022-08-05T23:38:12.680Z,94.81
2022-08-05T23:41:41.066Z,93.83
2022-08-05T23:45:13.875Z,94.00
2022-08-05T23:48:38.732Z,93.60
2022-08-05T23:52:18.423Z,92.31
2022-08-05T23:55:43.773Z,92.42
2022-08-05T23:59:07.732Z,92.91
